Create Tblcommutelog Verified Points Advance Search
| # | Trip ID | Id Commuter | Trip Date | Trip Num | Current Lat | Current Lng | Delta Distance | Current Time | Activity | Activity Confidence | Current Speed | |
|---|---|---|---|---|---|---|---|---|---|---|---|---|
| 72181 | 250910_784108_16652594_1615 | 784108 | (not set) | (not set) | 39.070386904621 | -77.160330513119 | 6.3952 | 2025-09-10 16:27:44 | in_vehicle | 100 | 12.642270244173 | |
| 72182 | 250910_788559_16657212_1616 | 788559 | (not set) | (not set) | 38.996733457144 | -77.02242370378 | 1.7911 | 2025-09-10 16:27:44 | on_bicycle | 100 | 2.8655216501113 | |
| 72183 | 250910_788423_16657042_1553 | 788423 | (not set) | (not set) | 38.840709192346 | -77.431350106701 | 35.0941 | 2025-09-10 16:27:45 | unknown | 100 | 9.0346634241419 | |
| 72184 | 250910_788700_16657396_1619 | 788700 | (not set) | (not set) | 38.98580431263 | -76.925467449407 | 0.5662 | 2025-09-10 16:27:45 | in_vehicle | 100 | 10.138850393842 | |
| 72185 | 250910_786113_16654392_1601 | 786113 | (not set) | (not set) | 38.840711771173 | -77.431348570792 | 27.2139 | 2025-09-10 16:27:45 | in_vehicle | 100 | 8.7440879057999 | |
| 72186 | 250910_786132_16654406_1601 | 786132 | (not set) | (not set) | 38.840740830349 | -77.431346516159 | 27.5604 | 2025-09-10 16:27:45 | in_vehicle | 100 | 8.7530286909796 | |
| 72187 | 250910_787150_16655587_1555 | 787150 | (not set) | (not set) | 39.121154473611 | -76.638132944754 | 15.7088 | 2025-09-10 16:27:46 | in_vehicle | 100 | 12.199701377775 | |
| 72188 | 250910_774366_16641789_1618 | 774366 | (not set) | (not set) | 38.927466034651 | -77.071707982321 | 1.2025 | 2025-09-10 16:27:46 | in_vehicle | 100 | 0 | |
| 72189 | 250910_774366_16641789_1618 | 774366 | (not set) | (not set) | 38.927466034651 | -77.071707982321 | 1.2025 | 2025-09-10 16:27:46 | in_vehicle | 100 | 0 | |
| 72190 | 250910_774366_16641789_1618 | 774366 | (not set) | (not set) | 38.927466034651 | -77.071707982321 | 1.2025 | 2025-09-10 16:27:46 | in_vehicle | 100 | 0 | |
| 72191 | 250910_774366_16641789_1618 | 774366 | (not set) | (not set) | 38.927466034651 | -77.071707982321 | 1.2025 | 2025-09-10 16:27:46 | in_vehicle | 100 | 0 | |
| 72192 | 250910_766460_16633373_1604 | 766460 | (not set) | (not set) | 38.898250358918 | -77.010922965538 | 5.53 | 2025-09-10 16:27:46 | in_vehicle | 100 | -0.44703925898772 | |
| 72193 | 250910_785447_16655759_1608 | 785447 | (not set) | (not set) | 38.970255185214 | -76.848813282735 | 10.6831 | 2025-09-10 16:27:47 | in_vehicle | 100 | 13.330710703014 | |
| 72194 | 250910_785447_16655759_1608 | 785447 | (not set) | (not set) | 38.970255185214 | -76.848813282735 | 10.6831 | 2025-09-10 16:27:47 | in_vehicle | 100 | 13.330710703014 | |
| 72195 | 250910_785447_16655759_1608 | 785447 | (not set) | (not set) | 38.970255185214 | -76.848813282735 | 10.6831 | 2025-09-10 16:27:47 | in_vehicle | 100 | 13.330710703014 | |
| 72196 | 250910_772328_16657122_1606 | 772328 | (not set) | (not set) | 39.144453680818 | -76.895575606159 | 2.7324 | 2025-09-10 16:27:47 | in_vehicle | 100 | 3.8534784124742 | |
| 72197 | 250910_631037_6428227_1601 | 631037 | (not set) | (not set) | 39.122645903127 | -77.229395188357 | 19.3908 | 2025-09-10 16:27:49 | in_vehicle | 100 | 3.0666893166558 | |
| 72198 | 250910_784692_16652683_1601 | 784692 | (not set) | (not set) | 38.840028230821 | -77.431412024733 | 27.7852 | 2025-09-10 16:27:49 | in_vehicle | 100 | 8.6591504465922 | |
| 72199 | 250910_720669_16583633_1603 | 720669 | (not set) | (not set) | 38.795702459468 | -77.140790747519 | 11.0109 | 2025-09-10 16:27:49 | in_vehicle | 100 | 10.594830438009 | |
| 72200 | 250910_787692_16656198_1601 | 787692 | (not set) | (not set) | 39.212930842286 | -77.248781685205 | 17.7788 | 2025-09-10 16:27:49 | in_vehicle | 100 | 8.668091231772 |